Saint Francis, AR (72464)

12:38 PM CDT on May 25, 2015 (GMT -0500)
Peach Orchard | | Change Station
CLOSE
Current Station
Personal Weather Station
Location: Gideon, MO
Elevation: 263 ft
Nearby Weather Stations

Elev 263 ft 36.37 °N, 89.94 °W | Updated 3 minutes ago

Overcast
Overcast
74.7 °F
Feels Like 74 °F
N
6.0
Wind Variable Wind from SSW
Gusts 8.0 mph

Today
High -- | Low -- °F
--% Chance of Precip.
Yesterday
High -- | Low -- °F
Precip. -- in
5:47 AM 8:08 PM
Waxing Crescent, 50% visible
Pressure 30.04 in
Visibility 10.0 miles
Clouds Mostly Cloudy 3400 ft
Heat Index 74 °F
Dew Point 70 °F
Humidity 85%
Rainfall 0.00 in
Snow Depth Not available.
UV 6 out of 12
Pollen 1.90 out of 12
Air Quality Not available.
Flu Activity No Activity
SPECI KPOF 251719Z AUTO 20005KT 10SM BKN034 24/20 A3004 RMK AO2 T02440200

More Conditions Fewer Conditions

Pressure 30.04 in
Visibility 10.0 miles
Clouds Mostly Cloudy 3400 ft
Heat Index 74 °F
Dew Point 70 °F
Humidity 85%
Rainfall 0.00 in
Snow Depth Not available.
UV 6 out of 12
Pollen 1.90 out of 12
Air Quality Not available.
Flu Activity No Activity
SPECI KPOF 251719Z AUTO 20005KT 10SM BKN034 24/20 A3004 RMK AO2 T02440200

More Conditions Fewer Conditions

10-Day Weather Forecast

Almanac

Astronomy

May. 25, 2015 Rise Set
Actual Time
Civil Twilight
Nautical Twilight
Astronomical Twilight
Moon
Length of Visible Light
Length of Day
Tomorrow will be .
, % of the Moon is Illuminated

Today's Extremes

State Highs State Lows

Community

WunderPhotos

Upload Photos

1,824,070 photos uploaded!

WunderBlogs® & News

Nearby

Air Quality

  Air Quality AQ Index Pollutant
Not available.

Snow Depth

Station Depth Elevation

Earthquake Activity

City Distance Mag. Time & Date
Minimum magnitude displayed is 2.5.

Coastal Water Temperatures

Place Temperature

Stations

Nearby Weather Stations

Station Location Temp. Windchill Dew Point Humidity Wind Precip. Elev Updated Type